Main page
METAR-TAF:

METAR-TAF

Airports :

Hamburg Finkenwerder Airport

Finkenwerder, Germany

latitude: 53-32N, longitude: 009-50E, elevation: 5 m

Current weather observation

The report was made 24 minutes ago, at 02:20 UTC
Wind 5 kt from the East
Temperature 16°C
Humidity 88%
Pressure 1019 hPa
Visibility 10 km or more

METAR: EDHI 250220Z AUTO 08005KT 9999 // NCD 16/14 Q1019

Time: 04:44 (02:44 UTC)

Forecast

The report was made 9 hours and 44 minutes ago, at 17:00 UTC
Forecast valid from 24 at 18 UTC to 24 at 21 UTC
Wind 5 kt from the North
Visibility 10 km or more
no clouds below 1500 m and no cumulonimbus
Becoming
from 24 at 19 UTC to 24 at 21 UTC
Wind 4 kt from the East/Northeast

TAF: EDHI 241700Z 2418/2421 35005KT CAVOK BECMG 2419/2421 07004KT

Weather observations and forecasts of more than 4000 airports (METAR and TAF reports).

The available stations are represented by yellow and red dots on the map.

Hover mouse over dot to see the name of the station.

Then click to see weather observations and forecasts.

To change the map : click on the green buttons with a black cross to zoom in, on the green button with a dash to zoom out, or on the green arrows for adjacent maps.


METAR-TAF: